sensor_id;sensor_type;location;lat;lon;timestamp;pressure;altitude;pressure_sealevel;temperature;humidity
65553;BME280;52465;51.560;14.368;2022-11-15T00:00:23;100281.22;;;13.68;62.86
65553;BME280;52465;51.560;14.368;2022-11-15T00:02:48;100279.78;;;13.65;62.89
65553;BME280;52465;51.560;14.368;2022-11-15T00:05:14;100277.94;;;13.66;63.01
65553;BME280;52465;51.560;14.368;2022-11-15T00:07:39;100288.47;;;13.66;62.80
65553;BME280;52465;51.560;14.368;2022-11-15T00:10:04;100277.94;;;13.66;63.25
65553;BME280;52465;51.560;14.368;2022-11-15T00:12:30;100275.31;;;13.66;63.04
65553;BME280;52465;51.560;14.368;2022-11-15T00:14:55;100275.31;;;13.66;63.32
65553;BME280;52465;51.560;14.368;2022-11-15T00:17:20;100273.69;;;13.65;63.20
65553;BME280;52465;51.560;14.368;2022-11-15T00:19:46;100275.50;;;13.64;62.74
65553;BME280;52465;51.560;14.368;2022-11-15T00:22:11;100266.81;;;13.64;62.81
65553;BME280;52465;51.560;14.368;2022-11-15T00:24:36;100276.47;;;13.63;63.07
65553;BME280;52465;51.560;14.368;2022-11-15T00:27:01;100270.41;;;13.63;62.98
65553;BME280;52465;51.560;14.368;2022-11-15T00:29:27;100265.31;;;13.61;63.10
65553;BME280;52465;51.560;14.368;2022-11-15T00:31:52;100272.06;;;13.64;63.19
65553;BME280;52465;51.560;14.368;2022-11-15T00:34:17;100269.75;;;13.61;63.01
65553;BME280;52465;51.560;14.368;2022-11-15T00:36:43;100273.22;;;13.61;63.12
65553;BME280;52465;51.560;14.368;2022-11-15T00:39:08;100267.94;;;13.61;62.78
65553;BME280;52465;51.560;14.368;2022-11-15T00:41:33;100268.94;;;13.60;62.95
65553;BME280;52465;51.560;14.368;2022-11-15T00:43:59;100265.31;;;13.61;63.04
65553;BME280;52465;51.560;14.368;2022-11-15T00:46:24;100255.81;;;13.60;63.33
65553;BME280;52465;51.560;14.368;2022-11-15T00:48:49;100261.88;;;13.61;63.02
65553;BME280;52465;51.560;14.368;2022-11-15T00:51:14;100255.00;;;13.60;63.19
65553;BME280;52465;51.560;14.368;2022-11-15T00:53:39;100249.44;;;13.55;63.35
65553;BME280;52465;51.560;14.368;2022-11-15T00:56:05;100261.06;;;13.60;63.15
65553;BME280;52465;51.560;14.368;2022-11-15T00:58:30;100253.34;;;13.59;62.99
65553;BME280;52465;51.560;14.368;2022-11-15T01:00:56;100251.06;;;13.56;63.23
65553;BME280;52465;51.560;14.368;2022-11-15T01:03:21;100255.16;;;13.58;63.21
65553;BME280;52465;51.560;14.368;2022-11-15T01:05:46;100257.81;;;13.58;62.88
65553;BME280;52465;51.560;14.368;2022-11-15T01:08:13;100240.19;;;13.59;63.24
65553;BME280;52465;51.560;14.368;2022-11-15T01:10:39;100246.63;;;13.56;63.43
65553;BME280;52465;51.560;14.368;2022-11-15T01:13:04;100254.69;;;13.55;62.83
65553;BME280;52465;51.560;14.368;2022-11-15T01:15:29;100242.34;;;13.55;63.23
65553;BME280;52465;51.560;14.368;2022-11-15T01:17:54;100244.16;;;13.55;63.07
65553;BME280;52465;51.560;14.368;2022-11-15T01:20:20;100235.47;;;13.54;62.96
65553;BME280;52465;51.560;14.368;2022-11-15T01:22:45;100233.66;;;13.55;62.99
65553;BME280;52465;51.560;14.368;2022-11-15T01:25:10;100224.13;;;13.54;63.05
65553;BME280;52465;51.560;14.368;2022-11-15T01:27:35;100228.38;;;13.55;63.32
65553;BME280;52465;51.560;14.368;2022-11-15T01:30:01;100218.88;;;13.54;62.81
65553;BME280;52465;51.560;14.368;2022-11-15T01:32:26;100218.88;;;13.54;63.29
65553;BME280;52465;51.560;14.368;2022-11-15T01:34:51;100218.22;;;13.52;63.26
65553;BME280;52465;51.560;14.368;2022-11-15T01:37:16;100220.03;;;13.51;63.27
65553;BME280;52465;51.560;14.368;2022-11-15T01:39:42;100213.75;;;13.52;63.14
65553;BME280;52465;51.560;14.368;2022-11-15T01:42:14;100211.31;;;13.50;63.09
65553;BME280;52465;51.560;14.368;2022-11-15T01:44:46;100203.63;;;13.49;63.41
65553;BME280;52465;51.560;14.368;2022-11-15T01:47:15;100203.63;;;13.49;63.34
65553;BME280;52465;51.560;14.368;2022-11-15T01:49:49;100200.97;;;13.49;63.04
65553;BME280;52465;51.560;14.368;2022-11-15T01:52:19;100198.34;;;13.49;63.01
65553;BME280;52465;51.560;14.368;2022-11-15T01:54:47;100195.91;;;13.47;63.27
65553;BME280;52465;51.560;14.368;2022-11-15T01:57:13;100195.09;;;13.47;63.16
65553;BME280;52465;51.560;14.368;2022-11-15T01:59:42;100195.25;;;13.45;63.26
65553;BME280;52465;51.560;14.368;2022-11-15T02:02:08;100188.84;;;13.48;63.44
65553;BME280;52465;51.560;14.368;2022-11-15T02:04:37;100202.97;;;13.47;63.54
65553;BME280;52465;51.560;14.368;2022-11-15T02:07:05;100202.13;;;13.46;63.41
65553;BME280;52465;51.560;14.368;2022-11-15T02:09:31;100203.94;;;13.46;63.25
65553;BME280;52465;51.560;14.368;2022-11-15T02:11:57;100193.63;;;13.44;63.11
65553;BME280;52465;51.560;14.368;2022-11-15T02:14:25;100182.28;;;13.44;63.38
65553;BME280;52465;51.560;14.368;2022-11-15T02:17:11;100188.34;;;13.44;63.42
65553;BME280;52465;51.560;14.368;2022-11-15T02:26:08;100178.03;;;13.43;63.32
65553;BME280;52465;51.560;14.368;2022-11-15T02:31:32;100170.31;;;13.41;62.93
65553;BME280;52465;51.560;14.368;2022-11-15T02:34:16;100170.31;;;13.41;63.26
65553;BME280;52465;51.560;14.368;2022-11-15T02:37:06;100171.28;;;13.40;63.02
65553;BME280;52465;51.560;14.368;2022-11-15T02:39:46;100170.31;;;13.41;63.20
65553;BME280;52465;51.560;14.368;2022-11-15T02:42:19;100169.47;;;13.41;63.06
65553;BME280;52465;51.560;14.368;2022-11-15T02:45:07;100162.44;;;13.41;63.04
65553;BME280;52465;51.560;14.368;2022-11-15T02:47:42;100154.88;;;13.38;62.95
65553;BME280;52465;51.560;14.368;2022-11-15T02:50:10;100153.88;;;13.39;63.50
65553;BME280;52465;51.560;14.368;2022-11-15T02:52:37;100154.69;;;13.40;62.88
65553;BME280;52465;51.560;14.368;2022-11-15T02:55:02;100159.31;;;13.38;63.01
65553;BME280;52465;51.560;14.368;2022-11-15T02:57:48;100152.25;;;13.38;63.32
65553;BME280;52465;51.560;14.368;2022-11-15T03:00:18;100147.53;;;13.34;63.17
65553;BME280;52465;51.560;14.368;2022-11-15T03:03:07;100158.31;;;13.39;63.48
65553;BME280;52465;51.560;14.368;2022-11-15T03:05:48;100153.88;;;13.39;63.01
65553;BME280;52465;51.560;14.368;2022-11-15T03:11:07;100152.44;;;13.37;63.29
65553;BME280;52465;51.560;14.368;2022-11-15T03:13:38;100149.81;;;13.37;63.24
65553;BME280;52465;51.560;14.368;2022-11-15T03:18:43;100148.00;;;13.37;63.16
65553;BME280;52465;51.560;14.368;2022-11-15T03:21:12;100148.00;;;13.37;63.06
65553;BME280;52465;51.560;14.368;2022-11-15T03:23:39;100142.91;;;13.36;63.08
65553;BME280;52465;51.560;14.368;2022-11-15T03:26:07;100137.66;;;13.36;63.14
65553;BME280;52465;51.560;14.368;2022-11-15T03:28:38;100129.78;;;13.36;63.43
65553;BME280;52465;51.560;14.368;2022-11-15T03:31:05;100131.56;;;13.35;63.25
65553;BME280;52465;51.560;14.368;2022-11-15T03:33:54;100130.59;;;13.36;63.03
65553;BME280;52465;51.560;14.368;2022-11-15T03:36:22;100120.22;;;13.35;63.45
65553;BME280;52465;51.560;14.368;2022-11-15T03:38:48;100108.97;;;13.26;63.55
65553;BME280;52465;51.560;14.368;2022-11-15T03:41:23;100117.59;;;13.35;63.11
65553;BME280;52465;51.560;14.368;2022-11-15T03:43:59;100116.78;;;13.34;63.17
65553;BME280;52465;51.560;14.368;2022-11-15T03:46:35;100120.41;;;13.33;62.97
65553;BME280;52465;51.560;14.368;2022-11-15T03:49:21;100122.03;;;13.34;62.96
65553;BME280;52465;51.560;14.368;2022-11-15T03:51:48;100109.91;;;13.33;63.45
65553;BME280;52465;51.560;14.368;2022-11-15T03:54:13;100108.25;;;13.32;63.35
65553;BME280;52465;51.560;14.368;2022-11-15T03:56:39;100111.72;;;13.33;63.48
65553;BME280;52465;51.560;14.368;2022-11-15T03:59:04;100113.53;;;13.32;63.21
65553;BME280;52465;51.560;14.368;2022-11-15T04:01:29;100116.97;;;13.33;63.18
65553;BME280;52465;51.560;14.368;2022-11-15T04:03:54;100107.63;;;13.30;63.48
65553;BME280;52465;51.560;14.368;2022-11-15T04:06:20;100112.91;;;13.30;63.39
65553;BME280;52465;51.560;14.368;2022-11-15T04:08:45;100119.13;;;13.29;63.32
65553;BME280;52465;51.560;14.368;2022-11-15T04:11:10;100109.59;;;13.28;63.15
65553;BME280;52465;51.560;14.368;2022-11-15T04:13:36;100115.53;;;13.30;63.26
65553;BME280;52465;51.560;14.368;2022-11-15T04:16:01;100113.88;;;13.29;63.15
65553;BME280;52465;51.560;14.368;2022-11-15T04:18:26;100107.78;;;13.29;63.08
65553;BME280;52465;51.560;14.368;2022-11-15T04:20:51;100112.25;;;13.28;63.22
65553;BME280;52465;51.560;14.368;2022-11-15T04:23:35;100108.97;;;13.26;63.08
65553;BME280;52465;51.560;14.368;2022-11-15T04:26:22;100108.59;;;13.29;63.12
65553;BME280;52465;51.560;14.368;2022-11-15T04:28:48;100106.16;;;13.28;62.94
65553;BME280;52465;51.560;14.368;2022-11-15T04:31:31;100108.78;;;13.28;63.00
65553;BME280;52465;51.560;14.368;2022-11-15T04:33:57;100107.97;;;13.27;63.16
65553;BME280;52465;51.560;14.368;2022-11-15T04:36:22;100117.50;;;13.28;63.17
65553;BME280;52465;51.560;14.368;2022-11-15T04:39:07;100113.41;;;13.26;63.20
65553;BME280;52465;51.560;14.368;2022-11-15T04:41:32;100113.25;;;13.27;63.12
65553;BME280;52465;51.560;14.368;2022-11-15T04:43:58;100113.25;;;13.27;63.48
65553;BME280;52465;51.560;14.368;2022-11-15T04:46:24;100110.59;;;13.27;63.15
65553;BME280;52465;51.560;14.368;2022-11-15T04:48:50;100099.63;;;13.23;63.34
65553;BME280;52465;51.560;14.368;2022-11-15T04:51:15;100096.84;;;13.25;63.50
65553;BME280;52465;51.560;14.368;2022-11-15T04:53:40;100099.47;;;13.25;63.53
65553;BME280;52465;51.560;14.368;2022-11-15T04:56:06;100097.81;;;13.24;63.14
65553;BME280;52465;51.560;14.368;2022-11-15T04:58:31;100100.44;;;13.24;62.84
65553;BME280;52465;51.560;14.368;2022-11-15T05:00:56;100104.88;;;13.23;63.52
65553;BME280;52465;51.560;14.368;2022-11-15T05:03:22;100106.53;;;13.25;63.17
65553;BME280;52465;51.560;14.368;2022-11-15T05:06:06;100106.53;;;13.25;63.59
65553;BME280;52465;51.560;14.368;2022-11-15T05:08:31;100105.06;;;13.22;63.45
65553;BME280;52465;51.560;14.368;2022-11-15T05:10:56;100104.88;;;13.23;63.64
65553;BME280;52465;51.560;14.368;2022-11-15T05:13:22;100099.81;;;13.22;63.34
65553;BME280;52465;51.560;14.368;2022-11-15T05:15:47;100105.88;;;13.22;63.56
65553;BME280;52465;51.560;14.368;2022-11-15T05:18:13;100099.81;;;13.22;63.34
65553;BME280;52465;51.560;14.368;2022-11-15T05:20:38;100113.56;;;13.24;63.07
65553;BME280;52465;51.560;14.368;2022-11-15T05:23:04;100097.34;;;13.20;63.22
65553;BME280;52465;51.560;14.368;2022-11-15T05:25:29;100098.19;;;13.21;63.25
65553;BME280;52465;51.560;14.368;2022-11-15T05:27:54;100090.28;;;13.21;63.59
65553;BME280;52465;51.560;14.368;2022-11-15T05:30:20;100091.91;;;13.22;63.54
65553;BME280;52465;51.560;14.368;2022-11-15T05:32:45;100090.28;;;13.21;63.15
65553;BME280;52465;51.560;14.368;2022-11-15T05:35:29;100084.19;;;13.20;63.14
65553;BME280;52465;51.560;14.368;2022-11-15T05:37:56;100093.88;;;13.20;63.48
65553;BME280;52465;51.560;14.368;2022-11-15T05:40:21;100086.00;;;13.20;63.36
65553;BME280;52465;51.560;14.368;2022-11-15T05:42:47;100083.38;;;13.20;63.26
65553;BME280;52465;51.560;14.368;2022-11-15T05:45:13;100086.16;;;13.18;63.25
65553;BME280;52465;51.560;14.368;2022-11-15T05:47:39;100081.75;;;13.19;63.57
65553;BME280;52465;51.560;14.368;2022-11-15T05:50:05;100081.75;;;13.19;63.52
65553;BME280;52465;51.560;14.368;2022-11-15T05:52:33;100082.72;;;13.18;63.10
65553;BME280;52465;51.560;14.368;2022-11-15T05:55:01;100079.94;;;13.19;63.40
65553;BME280;52465;51.560;14.368;2022-11-15T05:57:27;100082.72;;;13.18;63.48
65553;BME280;52465;51.560;14.368;2022-11-15T05:59:53;100079.28;;;13.17;63.10
65553;BME280;52465;51.560;14.368;2022-11-15T06:02:19;100083.53;;;13.18;63.36
65553;BME280;52465;51.560;14.368;2022-11-15T06:04:44;100087.97;;;13.18;63.05
65553;BME280;52465;51.560;14.368;2022-11-15T06:07:09;100084.72;;;13.16;63.46
65553;BME280;52465;51.560;14.368;2022-11-15T06:09:35;100083.91;;;13.15;63.62
65553;BME280;52465;51.560;14.368;2022-11-15T06:12:00;100081.28;;;13.15;63.63
65553;BME280;52465;51.560;14.368;2022-11-15T06:14:25;100083.09;;;13.15;63.36
65553;BME280;52465;51.560;14.368;2022-11-15T06:16:50;100082.44;;;13.13;63.18
65553;BME280;52465;51.560;14.368;2022-11-15T06:19:16;100084.09;;;13.14;63.55
65553;BME280;52465;51.560;14.368;2022-11-15T06:21:41;100085.06;;;13.13;63.42
65553;BME280;52465;51.560;14.368;2022-11-15T06:24:07;100085.91;;;13.13;63.27
65553;BME280;52465;51.560;14.368;2022-11-15T06:26:32;100092.13;;;13.12;63.57
65553;BME280;52465;51.560;14.368;2022-11-15T06:28:57;100085.44;;;13.10;63.28
65553;BME280;52465;51.560;14.368;2022-11-15T06:31:23;100093.94;;;13.12;63.39
65553;BME280;52465;51.560;14.368;2022-11-15T06:33:48;100106.09;;;13.13;63.32
65553;BME280;52465;51.560;14.368;2022-11-15T06:36:14;100101.00;;;13.11;63.19
65553;BME280;52465;51.560;14.368;2022-11-15T06:38:41;100100.19;;;13.11;62.98
65553;BME280;52465;51.560;14.368;2022-11-15T06:41:08;100111.53;;;13.11;63.28
65553;BME280;52465;51.560;14.368;2022-11-15T06:43:34;100112.34;;;13.12;63.40
65553;BME280;52465;51.560;14.368;2022-11-15T06:46:01;100112.34;;;13.12;63.19
65553;BME280;52465;51.560;14.368;2022-11-15T06:48:27;100110.72;;;13.11;63.33
65553;BME280;52465;51.560;14.368;2022-11-15T06:50:53;100111.53;;;13.11;63.32
65553;BME280;52465;51.560;14.368;2022-11-15T06:53:19;100109.09;;;13.10;63.29
65553;BME280;52465;51.560;14.368;2022-11-15T06:55:44;100113.34;;;13.11;63.36
65553;BME280;52465;51.560;14.368;2022-11-15T06:58:09;100105.16;;;13.06;63.61
65553;BME280;52465;51.560;14.368;2022-11-15T07:00:36;100115.97;;;13.11;63.44
65553;BME280;52465;51.560;14.368;2022-11-15T07:03:02;100119.59;;;13.10;63.17
65553;BME280;52465;51.560;14.368;2022-11-15T07:05:28;100124.84;;;13.10;63.30
65553;BME280;52465;51.560;14.368;2022-11-15T07:07:57;100127.47;;;13.10;62.98
65553;BME280;52465;51.560;14.368;2022-11-15T07:10:24;100124.84;;;13.10;63.37
65553;BME280;52465;51.560;14.368;2022-11-15T07:12:53;100126.66;;;13.09;62.95
65553;BME280;52465;51.560;14.368;2022-11-15T07:15:21;100127.47;;;13.10;63.05
65553;BME280;52465;51.560;14.368;2022-11-15T07:17:47;100130.91;;;13.10;63.35
65553;BME280;52465;51.560;14.368;2022-11-15T07:22:39;100117.97;;;13.09;63.22
65553;BME280;52465;51.560;14.368;2022-11-15T07:25:04;100120.59;;;13.09;63.14
65553;BME280;52465;51.560;14.368;2022-11-15T07:27:29;100125.66;;;13.10;63.37
65553;BME280;52465;51.560;14.368;2022-11-15T07:29:55;100118.78;;;13.09;63.41
65553;BME280;52465;51.560;14.368;2022-11-15T07:32:20;100116.97;;;13.10;63.49
65553;BME280;52465;51.560;14.368;2022-11-15T07:34:45;100115.16;;;13.10;63.48
65553;BME280;52465;51.560;14.368;2022-11-15T07:37:11;100106.44;;;13.10;63.24
65553;BME280;52465;51.560;14.368;2022-11-15T07:39:37;100101.38;;;13.08;63.25
65553;BME280;52465;51.560;14.368;2022-11-15T07:42:02;100101.38;;;13.08;63.18
65553;BME280;52465;51.560;14.368;2022-11-15T07:44:46;100103.00;;;13.09;63.02
65553;BME280;52465;51.560;14.368;2022-11-15T07:47:12;100101.38;;;13.08;63.06
65553;BME280;52465;51.560;14.368;2022-11-15T07:49:37;100106.63;;;13.08;63.18
65553;BME280;52465;51.560;14.368;2022-11-15T07:52:03;100099.56;;;13.09;63.37
65553;BME280;52465;51.560;14.368;2022-11-15T07:54:28;100102.19;;;13.09;63.11
65553;BME280;52465;51.560;14.368;2022-11-15T07:56:53;100099.56;;;13.09;63.34
65553;BME280;52465;51.560;14.368;2022-11-15T07:59:18;100096.13;;;13.08;63.13
65553;BME280;52465;51.560;14.368;2022-11-15T08:01:44;100090.88;;;13.08;63.27
65553;BME280;52465;51.560;14.368;2022-11-15T08:04:10;100096.75;;;13.10;63.25
65553;BME280;52465;51.560;14.368;2022-11-15T08:06:36;100096.94;;;13.09;63.55
65553;BME280;52465;51.560;14.368;2022-11-15T08:09:02;100099.56;;;13.09;62.87
65553;BME280;52465;51.560;14.368;2022-11-15T08:11:27;100099.56;;;13.09;62.90
65553;BME280;52465;51.560;14.368;2022-11-15T08:13:52;100099.56;;;13.09;63.35
65553;BME280;52465;51.560;14.368;2022-11-15T08:16:18;100098.56;;;13.10;62.84
65553;BME280;52465;51.560;14.368;2022-11-15T08:18:43;100103.19;;;13.08;63.29
65553;BME280;52465;51.560;14.368;2022-11-15T08:21:09;100099.56;;;13.09;62.95
65553;BME280;52465;51.560;14.368;2022-11-15T08:23:35;100096.94;;;13.09;63.25
65553;BME280;52465;51.560;14.368;2022-11-15T08:26:02;100097.94;;;13.08;63.39
65553;BME280;52465;51.560;14.368;2022-11-15T08:28:28;100094.47;;;13.07;63.38
65553;BME280;52465;51.560;14.368;2022-11-15T08:30:53;100094.31;;;13.09;63.09
65553;BME280;52465;51.560;14.368;2022-11-15T08:33:19;100086.44;;;13.09;63.42
65553;BME280;52465;51.560;14.368;2022-11-15T08:35:44;100085.44;;;13.10;63.16
65553;BME280;52465;51.560;14.368;2022-11-15T08:38:09;100085.44;;;13.10;63.21
65553;BME280;52465;51.560;14.368;2022-11-15T08:40:35;100086.44;;;13.09;63.23
65553;BME280;52465;51.560;14.368;2022-11-15T08:43:00;100071.47;;;13.09;62.87
65553;BME280;52465;51.560;14.368;2022-11-15T08:45:28;100075.91;;;13.09;63.10
65553;BME280;52465;51.560;14.368;2022-11-15T08:47:53;100071.47;;;13.09;62.81
65553;BME280;52465;51.560;14.368;2022-11-15T08:50:19;100068.66;;;13.11;63.07
65553;BME280;52465;51.560;14.368;2022-11-15T08:52:45;100064.41;;;13.10;62.84
65553;BME280;52465;51.560;14.368;2022-11-15T08:55:10;100059.97;;;13.10;62.79
65553;BME280;52465;51.560;14.368;2022-11-15T08:57:35;100071.09;;;13.12;63.41
65553;BME280;52465;51.560;14.368;2022-11-15T09:00:00;100072.09;;;13.11;63.24
65553;BME280;52465;51.560;14.368;2022-11-15T09:02:26;100074.38;;;13.14;62.97
65553;BME280;52465;51.560;14.368;2022-11-15T09:04:51;100063.06;;;13.14;62.89
65553;BME280;52465;51.560;14.368;2022-11-15T09:07:16;100070.75;;;13.15;63.30
65553;BME280;52465;51.560;14.368;2022-11-15T09:09:42;100066.31;;;13.16;63.32
65553;BME280;52465;51.560;14.368;2022-11-15T09:12:08;100067.13;;;13.16;62.94
65553;BME280;52465;51.560;14.368;2022-11-15T09:14:34;100072.19;;;13.18;63.09
65553;BME280;52465;51.560;14.368;2022-11-15T09:17:00;100076.50;;;13.19;63.12
65553;BME280;52465;51.560;14.368;2022-11-15T09:19:25;100070.38;;;13.18;62.79
65553;BME280;52465;51.560;14.368;2022-11-15T09:21:50;100072.84;;;13.20;63.25
65553;BME280;52465;51.560;14.368;2022-11-15T09:24:16;100074.69;;;13.19;63.36
65553;BME280;52465;51.560;14.368;2022-11-15T09:26:42;100077.97;;;13.21;63.04
65553;BME280;52465;51.560;14.368;2022-11-15T09:29:07;100087.47;;;13.22;63.45
65553;BME280;52465;51.560;14.368;2022-11-15T09:31:33;100072.53;;;13.23;63.01
65553;BME280;52465;51.560;14.368;2022-11-15T09:33:58;100075.81;;;13.25;62.83
65553;BME280;52465;51.560;14.368;2022-11-15T09:36:23;100065.97;;;13.19;63.20
65553;BME280;52465;51.560;14.368;2022-11-15T09:38:49;100074.81;;;13.26;63.05
65553;BME280;52465;51.560;14.368;2022-11-15T09:49:20;100062.09;;;13.30;63.47
65553;BME280;52465;51.560;14.368;2022-11-15T09:51:48;100068.19;;;13.30;63.00
65553;BME280;52465;51.560;14.368;2022-11-15T09:54:40;100063.75;;;13.31;63.23
65553;BME280;52465;51.560;14.368;2022-11-15T09:57:20;100061.75;;;13.33;63.00
65553;BME280;52465;51.560;14.368;2022-11-15T09:59:58;100066.00;;;13.34;63.08
65553;BME280;52465;51.560;14.368;2022-11-15T10:02:49;100057.31;;;13.33;63.33
65553;BME280;52465;51.560;14.368;2022-11-15T10:05:22;100057.13;;;13.35;62.76
65553;BME280;52465;51.560;14.368;2022-11-15T10:07:56;100056.97;;;13.36;62.99
65553;BME280;52465;51.560;14.368;2022-11-15T10:10:39;100050.91;;;13.36;63.23
65553;BME280;52465;51.560;14.368;2022-11-15T10:13:14;100051.53;;;13.38;63.24
65553;BME280;52465;51.560;14.368;2022-11-15T10:20:50;100047.69;;;13.40;63.20
65553;BME280;52465;51.560;14.368;2022-11-15T10:23:19;100045.72;;;13.42;62.85
65553;BME280;52465;51.560;14.368;2022-11-15T10:25:46;100037.84;;;13.42;62.96
65553;BME280;52465;51.560;14.368;2022-11-15T10:28:15;100028.13;;;13.43;63.16
65553;BME280;52465;51.560;14.368;2022-11-15T10:30:47;100026.31;;;13.43;63.24
65553;BME280;52465;51.560;14.368;2022-11-15T10:33:19;100018.25;;;13.45;62.99
65553;BME280;52465;51.560;14.368;2022-11-15T10:35:46;100006.72;;;13.46;62.83
65553;BME280;52465;51.560;14.368;2022-11-15T10:38:11;100006.56;;;13.47;63.10
65553;BME280;52465;51.560;14.368;2022-11-15T10:40:39;100004.56;;;13.49;63.08
65553;BME280;52465;51.560;14.368;2022-11-15T10:45:36;100005.19;;;13.52;63.06
65553;BME280;52465;51.560;14.368;2022-11-15T10:50:36;100003.19;;;13.54;62.99
65553;BME280;52465;51.560;14.368;2022-11-15T10:53:01;99998.75;;;13.54;62.79
65553;BME280;52465;51.560;14.368;2022-11-15T10:55:29;99997.75;;;13.55;63.06
65553;BME280;52465;51.560;14.368;2022-11-15T10:58:18;99990.69;;;13.56;62.89
65553;BME280;52465;51.560;14.368;2022-11-15T11:00:45;99979.34;;;13.55;62.92
65553;BME280;52465;51.560;14.368;2022-11-15T11:03:29;99981.63;;;13.58;63.15
65553;BME280;52465;51.560;14.368;2022-11-15T11:06:05;99978.78;;;13.60;62.93
65553;BME280;52465;51.560;14.368;2022-11-15T11:08:30;99972.53;;;13.61;63.16
65553;BME280;52465;51.560;14.368;2022-11-15T11:10:59;99971.72;;;13.60;63.26
65553;BME280;52465;51.560;14.368;2022-11-15T11:13:27;99977.59;;;13.62;63.04
65553;BME280;52465;51.560;14.368;2022-11-15T11:15:59;99971.34;;;13.63;62.98
65553;BME280;52465;51.560;14.368;2022-11-15T11:18:36;99971.19;;;13.65;63.37
65553;BME280;52465;51.560;14.368;2022-11-15T11:21:12;99964.91;;;13.66;62.98
65553;BME280;52465;51.560;14.368;2022-11-15T11:23:51;99964.91;;;13.66;62.86
65553;BME280;52465;51.560;14.368;2022-11-15T11:26:33;99970.78;;;13.68;63.06
65553;BME280;52465;51.560;14.368;2022-11-15T11:34:47;99947.78;;;13.70;62.98
65553;BME280;52465;51.560;14.368;2022-11-15T11:50:32;99928.97;;;13.73;62.94
65553;BME280;52465;51.560;14.368;2022-11-15T11:53:12;99921.88;;;13.73;63.38
65553;BME280;52465;51.560;14.368;2022-11-15T11:55:44;99914.81;;;13.74;63.03
65553;BME280;52465;51.560;14.368;2022-11-15T12:00:57;99909.53;;;13.74;63.25
65553;BME280;52465;51.560;14.368;2022-11-15T12:06:23;99905.94;;;13.75;63.08
65553;BME280;52465;51.560;14.368;2022-11-15T12:08:56;99905.94;;;13.75;63.09
65553;BME280;52465;51.560;14.368;2022-11-15T12:11:32;99905.94;;;13.75;63.16
65553;BME280;52465;51.560;14.368;2022-11-15T12:14:02;99895.56;;;13.73;63.35
65553;BME280;52465;51.560;14.368;2022-11-15T12:16:30;99898.06;;;13.75;63.35
65553;BME280;52465;51.560;14.368;2022-11-15T12:18:59;99888.69;;;13.72;63.26
65553;BME280;52465;51.560;14.368;2022-11-15T12:24:02;99891.13;;;13.74;63.43
65553;BME280;52465;51.560;14.368;2022-11-15T12:26:32;99880.44;;;13.75;63.47
65553;BME280;52465;51.560;14.368;2022-11-15T12:29:19;99879.44;;;13.76;62.83
65553;BME280;52465;51.560;14.368;2022-11-15T12:31:50;99873.72;;;13.73;63.42
65553;BME280;52465;51.560;14.368;2022-11-15T12:36:44;99863.75;;;13.68;62.86
65553;BME280;52465;51.560;14.368;2022-11-15T12:39:11;99867.44;;;13.74;63.27
65553;BME280;52465;51.560;14.368;2022-11-15T12:41:39;99870.09;;;13.74;62.95
65553;BME280;52465;51.560;14.368;2022-11-15T12:44:11;99859.56;;;13.74;63.16
65553;BME280;52465;51.560;14.368;2022-11-15T12:50:10;99862.03;;;13.75;63.00
65553;BME280;52465;51.560;14.368;2022-11-15T12:52:06;99854.94;;;13.76;63.40
65553;BME280;52465;51.560;14.368;2022-11-15T12:54:53;99849.69;;;13.76;63.27
65553;BME280;52465;51.560;14.368;2022-11-15T12:59:59;99838.78;;;13.79;63.11
65553;BME280;52465;51.560;14.368;2022-11-15T13:02:32;99842.41;;;13.78;63.11
65553;BME280;52465;51.560;14.368;2022-11-15T13:13:00;99834.16;;;13.81;63.30
65553;BME280;52465;51.560;14.368;2022-11-15T13:15:52;99835.13;;;13.80;63.00
65553;BME280;52465;51.560;14.368;2022-11-15T13:18:34;99844.47;;;13.83;63.02
65553;BME280;52465;51.560;14.368;2022-11-15T13:21:01;99826.25;;;13.81;63.06
65553;BME280;52465;51.560;14.368;2022-11-15T13:23:52;99827.88;;;13.82;63.29
65553;BME280;52465;51.560;14.368;2022-11-15T13:26:17;99826.88;;;13.83;62.95
65553;BME280;52465;51.560;14.368;2022-11-15T13:28:50;99826.50;;;13.86;62.79
65553;BME280;52465;51.560;14.368;2022-11-15T13:31:28;99819.44;;;13.87;62.90
65553;BME280;52465;51.560;14.368;2022-11-15T13:34:01;99816.16;;;13.85;62.78
65553;BME280;52465;51.560;14.368;2022-11-15T13:36:30;99812.50;;;13.86;62.86
65553;BME280;52465;51.560;14.368;2022-11-15T13:39:01;99811.72;;;13.85;63.21
65553;BME280;52465;51.560;14.368;2022-11-15T13:41:31;99803.81;;;13.85;63.45
65553;BME280;52465;51.560;14.368;2022-11-15T13:43:57;99800.19;;;13.86;63.08
65553;BME280;52465;51.560;14.368;2022-11-15T13:46:31;99799.34;;;13.86;62.97
65553;BME280;52465;51.560;14.368;2022-11-15T13:49:04;99793.13;;;13.87;63.34
65553;BME280;52465;51.560;14.368;2022-11-15T13:51:43;99794.75;;;13.88;63.34
65553;BME280;52465;51.560;14.368;2022-11-15T13:54:20;99804.47;;;13.87;63.23
65553;BME280;52465;51.560;14.368;2022-11-15T13:59:44;99803.44;;;13.88;63.03
65553;BME280;52465;51.560;14.368;2022-11-15T14:02:21;99801.63;;;13.89;63.18
65553;BME280;52465;51.560;14.368;2022-11-15T14:07:20;99799.81;;;13.89;62.98
65553;BME280;52465;51.560;14.368;2022-11-15T14:09:46;99797.19;;;13.89;62.98
65553;BME280;52465;51.560;14.368;2022-11-15T14:12:32;99795.75;;;13.87;63.27
65553;BME280;52465;51.560;14.368;2022-11-15T14:15:00;99793.72;;;13.89;63.54